createdAt,value
2017-11-30T00:00:08.540Z,19.70
2017-11-30T00:01:08.540Z,19.70
2017-11-30T00:02:09.107Z,19.71
2017-11-30T00:03:08.540Z,19.70
2017-11-30T00:04:09.112Z,19.64
2017-11-30T00:05:08.544Z,19.66
2017-11-30T00:06:08.546Z,19.73
2017-11-30T00:07:08.540Z,19.70
2017-11-30T00:08:09.112Z,19.66
2017-11-30T00:09:08.541Z,19.62
2017-11-30T00:10:09.111Z,19.64
2017-11-30T00:11:08.545Z,19.59
2017-11-30T00:12:08.543Z,19.59
2017-11-30T00:13:09.117Z,19.64
2017-11-30T00:14:09.114Z,19.62
2017-11-30T00:15:08.544Z,19.59
2017-11-30T00:16:08.551Z,19.59
2017-11-30T00:17:08.545Z,19.55
2017-11-30T00:18:08.550Z,19.55
2017-11-30T00:19:09.112Z,19.54
2017-11-30T00:20:09.118Z,19.59
2017-11-30T00:21:08.554Z,19.56
2017-11-30T00:22:08.556Z,19.59
2017-11-30T00:23:08.548Z,19.52
2017-11-30T00:24:08.552Z,19.62
2017-11-30T00:25:09.117Z,19.47
2017-11-30T00:26:08.555Z,19.51
2017-11-30T00:27:08.548Z,19.55
2017-11-30T00:28:09.120Z,19.49
2017-11-30T00:29:08.560Z,19.49
2017-11-30T00:30:08.566Z,19.52
2017-11-30T00:31:09.117Z,19.49
2017-11-30T00:32:08.558Z,19.55
2017-11-30T00:33:09.123Z,19.56
2017-11-30T00:34:08.564Z,19.59
2017-11-30T00:35:08.574Z,19.58
2017-11-30T00:36:08.569Z,19.49
2017-11-30T00:37:08.571Z,19.49
2017-11-30T00:38:08.557Z,19.56
2017-11-30T00:39:08.559Z,19.59
2017-11-30T00:40:09.123Z,19.51
2017-11-30T00:41:09.117Z,19.58
2017-11-30T00:42:08.565Z,19.62
2017-11-30T00:43:08.561Z,19.51
2017-11-30T00:44:08.567Z,19.55
2017-11-30T00:45:09.125Z,19.55
2017-11-30T00:46:09.133Z,19.54
2017-11-30T00:47:08.561Z,19.59
2017-11-30T00:48:08.565Z,19.52
2017-11-30T00:49:08.561Z,19.62
2017-11-30T00:50:08.564Z,19.52
2017-11-30T00:51:08.564Z,19.59
2017-11-30T00:52:08.563Z,19.59
2017-11-30T00:53:08.561Z,19.63
2017-11-30T00:54:08.564Z,19.59
2017-11-30T00:55:09.143Z,19.56
2017-11-30T00:56:08.581Z,19.59
2017-11-30T00:57:09.134Z,19.59
2017-11-30T00:58:09.135Z,19.64
2017-11-30T00:59:09.134Z,19.69
2017-11-30T01:00:09.133Z,19.67
2017-11-30T01:01:08.570Z,19.63
2017-11-30T01:02:08.580Z,19.73
2017-11-30T01:03:08.566Z,19.70
2017-11-30T01:04:08.567Z,19.67
2017-11-30T01:05:08.570Z,19.64
2017-11-30T01:06:08.574Z,19.67
2017-11-30T01:07:08.568Z,19.66
2017-11-30T01:08:08.570Z,19.70
2017-11-30T01:09:08.576Z,19.69
2017-11-30T01:10:09.126Z,19.70
2017-11-30T01:11:08.574Z,19.71
2017-11-30T01:12:09.129Z,19.69
2017-11-30T01:13:08.576Z,19.67
2017-11-30T01:14:09.128Z,19.69
2017-11-30T01:15:08.588Z,19.73
2017-11-30T01:16:08.584Z,19.70
2017-11-30T01:17:08.581Z,19.62
2017-11-30T01:18:09.135Z,19.70
2017-11-30T01:19:09.125Z,19.67
2017-11-30T01:20:08.580Z,19.63
2017-11-30T01:21:08.577Z,19.64
2017-11-30T01:22:08.578Z,19.58
2017-11-30T01:23:08.579Z,19.63
2017-11-30T01:24:08.578Z,19.58
2017-11-30T01:25:09.126Z,19.59
2017-11-30T01:26:09.130Z,19.63
2017-11-30T01:27:08.579Z,19.56
2017-11-30T01:28:08.583Z,19.59
2017-11-30T01:29:09.145Z,19.58
2017-11-30T01:30:08.594Z,19.62
2017-11-30T01:31:08.595Z,19.55
2017-11-30T01:32:09.142Z,19.59
2017-11-30T01:33:08.584Z,19.58
2017-11-30T01:34:08.585Z,19.59
2017-11-30T01:35:08.585Z,19.54
2017-11-30T01:36:08.586Z,19.52
2017-11-30T01:37:08.598Z,19.62
2017-11-30T01:38:12.128Z,19.48
2017-11-30T01:39:08.586Z,19.62
2017-11-30T01:40:09.132Z,19.49
2017-11-30T01:41:08.593Z,19.47
2017-11-30T01:42:08.586Z,19.62
2017-11-30T01:43:09.136Z,19.51
2017-11-30T01:44:09.130Z,19.51
2017-11-30T01:45:08.595Z,19.55
2017-11-30T01:46:08.595Z,19.55
2017-11-30T01:47:08.592Z,19.58
2017-11-30T01:48:08.595Z,19.58
2017-11-30T01:49:09.139Z,19.55
2017-11-30T01:50:08.593Z,19.51
2017-11-30T01:51:08.595Z,19.58
2017-11-30T01:52:08.882Z,19.59
2017-11-30T01:53:09.133Z,19.52
2017-11-30T01:54:08.591Z,19.59
2017-11-30T01:55:09.142Z,19.62
2017-11-30T01:56:08.593Z,19.55
2017-11-30T01:57:08.593Z,19.54
2017-11-30T01:58:09.139Z,19.49
2017-11-30T01:59:09.433Z,19.63
2017-11-30T02:00:08.593Z,19.56
2017-11-30T02:01:09.137Z,19.55
2017-11-30T02:02:08.596Z,19.51
2017-11-30T02:03:08.594Z,19.59
2017-11-30T02:04:08.600Z,19.56
2017-11-30T02:05:08.599Z,19.56
2017-11-30T02:06:08.597Z,19.54
2017-11-30T02:07:08.607Z,19.62
2017-11-30T02:08:09.144Z,19.59
2017-11-30T02:09:08.596Z,19.64
2017-11-30T02:10:08.599Z,19.66
2017-11-30T02:11:08.607Z,19.63
2017-11-30T02:12:08.597Z,19.64
2017-11-30T02:13:09.138Z,19.59
2017-11-30T02:14:08.604Z,19.64
2017-11-30T02:15:08.603Z,19.63
2017-11-30T02:16:08.604Z,19.66
2017-11-30T02:17:08.603Z,19.64
2017-11-30T02:18:08.609Z,19.70
2017-11-30T02:19:08.602Z,19.66
2017-11-30T02:20:08.896Z,19.64
2017-11-30T02:21:09.142Z,19.62
2017-11-30T02:22:09.146Z,19.63
2017-11-30T02:23:09.145Z,19.66
2017-11-30T02:24:09.153Z,19.59
2017-11-30T02:25:08.613Z,19.58
2017-11-30T02:26:09.144Z,19.66
2017-11-30T02:27:08.920Z,19.64
2017-11-30T02:28:08.621Z,19.56
2017-11-30T02:29:08.623Z,19.59
2017-11-30T02:30:08.640Z,19.63
2017-11-30T02:31:09.144Z,19.62
2017-11-30T02:32:08.611Z,19.59
2017-11-30T02:33:08.609Z,19.58
2017-11-30T02:34:09.150Z,19.66
2017-11-30T02:35:08.611Z,19.55
2017-11-30T02:36:09.150Z,19.56
2017-11-30T02:37:09.147Z,19.59
2017-11-30T02:38:08.616Z,19.56
2017-11-30T02:39:08.611Z,19.59
2017-11-30T02:40:08.621Z,19.63
2017-11-30T02:41:09.428Z,19.63
2017-11-30T02:42:08.616Z,19.55
2017-11-30T02:43:08.618Z,19.56
2017-11-30T02:44:08.621Z,19.63
2017-11-30T02:45:09.145Z,19.59
2017-11-30T02:46:08.628Z,19.55
2017-11-30T02:47:08.624Z,19.70
2017-11-30T02:48:08.929Z,19.63
2017-11-30T02:49:08.614Z,19.66
2017-11-30T02:50:08.619Z,19.67
2017-11-30T02:51:08.621Z,19.63
2017-11-30T02:52:09.147Z,19.59
2017-11-30T02:53:08.627Z,19.59
2017-11-30T02:54:08.631Z,19.66
2017-11-30T02:55:09.446Z,19.58
2017-11-30T02:56:09.155Z,19.63
2017-11-30T02:57:08.633Z,19.63
2017-11-30T02:58:08.637Z,19.67
2017-11-30T02:59:08.628Z,19.71
2017-11-30T03:03:56.320Z,19.67
2017-11-30T03:04:55.991Z,19.69
2017-11-30T03:06:47.866Z,19.67
2017-11-30T03:07:47.842Z,19.70
2017-11-30T03:09:39.990Z,19.64
2017-11-30T03:10:39.691Z,19.64
2017-11-30T03:13:32.120Z,19.70
2017-11-30T03:15:23.701Z,19.69
2017-11-30T03:16:23.398Z,19.70
2017-11-30T03:18:15.279Z,19.64
2017-11-30T03:19:15.255Z,19.67
2017-11-30T03:21:07.649Z,19.70
2017-11-30T03:22:07.597Z,19.70
2017-11-30T03:23:59.466Z,19.67
2017-11-30T03:24:59.445Z,19.69
2017-11-30T03:26:51.341Z,19.56
2017-11-30T03:27:51.303Z,19.67
2017-11-30T03:29:43.450Z,19.66
2017-11-30T03:30:43.173Z,19.70
2017-11-30T03:32:35.035Z,19.67
2017-11-30T03:33:35.006Z,19.64
2017-11-30T03:35:26.877Z,19.64
2017-11-30T03:36:26.863Z,19.69
2017-11-30T03:38:18.930Z,19.73
2017-11-30T03:39:18.716Z,19.59
2017-11-30T03:41:11.081Z,19.69
2017-11-30T03:42:11.061Z,19.64
2017-11-30T03:44:03.712Z,19.59
2017-11-30T03:45:03.406Z,19.67
2017-11-30T03:46:55.280Z,19.67
2017-11-30T03:47:55.256Z,19.71
2017-11-30T03:49:47.148Z,19.66
2017-11-30T03:50:47.386Z,19.73
2017-11-30T03:52:38.997Z,19.69
2017-11-30T03:53:38.979Z,19.67
2017-11-30T03:55:31.366Z,19.73
2017-11-30T03:56:31.322Z,19.70
2017-11-30T03:58:23.192Z,19.71
2017-11-30T03:59:23.184Z,19.67
2017-11-30T04:01:15.048Z,19.70
2017-11-30T04:02:15.026Z,19.66
2017-11-30T04:04:07.888Z,19.71
2017-11-30T04:05:06.908Z,19.70
2017-11-30T04:06:59.291Z,19.74
2017-11-30T04:07:59.266Z,19.70
2017-11-30T04:09:51.410Z,19.67
2017-11-30T04:10:51.116Z,19.73
2017-11-30T04:12:43.507Z,19.66
2017-11-30T04:13:43.465Z,19.66
2017-11-30T04:15:35.626Z,19.71
2017-11-30T04:16:35.304Z,19.71
2017-11-30T04:18:27.181Z,19.77
2017-11-30T04:21:19.305Z,19.64
2017-11-30T04:22:19.010Z,19.66
2017-11-30T04:24:10.886Z,19.76
2017-11-30T04:25:10.858Z,19.67
2017-11-30T04:27:03.015Z,19.70
2017-11-30T04:28:02.715Z,19.66
2017-11-30T04:29:54.604Z,19.74
2017-11-30T04:30:54.561Z,19.66
2017-11-30T04:32:46.430Z,19.67
2017-11-30T04:33:46.685Z,19.66
2017-11-30T04:35:38.288Z,19.67
2017-11-30T04:36:38.255Z,19.64
2017-11-30T04:38:30.135Z,19.70
2017-11-30T04:39:30.110Z,19.62
2017-11-30T04:41:22.002Z,19.63
2017-11-30T04:42:21.961Z,19.66
2017-11-30T04:44:14.340Z,19.58
2017-11-30T04:45:14.315Z,19.58
2017-11-30T04:47:06.582Z,19.55
2017-11-30T04:48:06.171Z,19.55
2017-11-30T04:49:58.552Z,19.59
2017-11-30T04:50:58.520Z,19.62
2017-11-30T04:52:50.676Z,19.55
2017-11-30T04:53:50.373Z,19.52
2017-11-30T04:55:42.739Z,19.56
2017-11-30T04:56:42.712Z,19.48
2017-11-30T04:58:34.597Z,19.54
2017-11-30T04:59:34.843Z,19.55
2017-11-30T05:01:26.471Z,19.56
2017-11-30T05:02:26.424Z,19.58
2017-11-30T05:04:18.312Z,19.51
2017-11-30T05:05:18.270Z,19.59
2017-11-30T05:07:10.142Z,19.62
2017-11-30T05:08:10.129Z,19.56
2017-11-30T05:10:02.006Z,19.58
2017-11-30T05:11:01.971Z,19.63
2017-11-30T05:12:54.611Z,19.54
2017-11-30T05:13:54.320Z,19.66
2017-11-30T05:15:46.205Z,19.59
2017-11-30T05:16:46.169Z,19.63
2017-11-30T05:18:38.312Z,19.58
2017-11-30T05:19:38.014Z,19.63
2017-11-30T05:21:29.918Z,19.59
2017-11-30T05:22:29.876Z,19.59
2017-11-30T05:24:22.012Z,19.59
2017-11-30T05:25:21.723Z,19.59
2017-11-30T05:27:13.605Z,19.63
2017-11-30T05:28:13.565Z,19.54
2017-11-30T05:30:05.716Z,19.55
2017-11-30T05:31:05.424Z,19.59
2017-11-30T05:32:57.307Z,19.56
2017-11-30T05:33:57.267Z,19.51
2017-11-30T05:35:49.449Z,19.55
2017-11-30T05:36:49.117Z,19.51
2017-11-30T05:38:41.556Z,19.47
2017-11-30T05:39:41.473Z,19.58
2017-11-30T05:41:33.614Z,19.58
2017-11-30T05:42:33.333Z,19.51
2017-11-30T05:43:33.319Z,19.51
2017-11-30T05:44:33.318Z,19.44
2017-11-30T05:45:33.339Z,19.47
2017-11-30T05:46:33.319Z,19.45
2017-11-30T05:47:33.590Z,19.51
2017-11-30T05:48:33.319Z,19.48
2017-11-30T05:49:33.341Z,19.47
2017-11-30T05:50:33.321Z,19.49
2017-11-30T05:51:33.322Z,19.44
2017-11-30T05:52:33.321Z,19.48
2017-11-30T05:53:33.602Z,19.49
2017-11-30T05:54:33.321Z,19.48
2017-11-30T05:55:33.323Z,19.48
2017-11-30T05:56:33.322Z,19.45
2017-11-30T05:57:33.323Z,19.48
2017-11-30T05:58:33.324Z,19.39
2017-11-30T05:59:33.599Z,19.47
2017-11-30T06:00:33.326Z,19.41
2017-11-30T06:01:33.323Z,19.39
2017-11-30T06:02:33.327Z,19.44
2017-11-30T06:03:33.333Z,19.49
2017-11-30T06:04:33.327Z,19.49
2017-11-30T06:05:33.327Z,19.47
2017-11-30T06:06:33.604Z,19.36
2017-11-30T06:07:33.327Z,19.44
2017-11-30T06:08:33.329Z,19.37
2017-11-30T06:09:33.326Z,19.40
2017-11-30T06:10:33.327Z,19.44
2017-11-30T06:11:33.332Z,19.39
2017-11-30T06:12:33.332Z,19.41
2017-11-30T06:13:33.600Z,19.39
2017-11-30T06:14:33.327Z,19.27
2017-11-30T06:15:33.326Z,19.39
2017-11-30T06:16:33.327Z,19.34
2017-11-30T06:17:33.330Z,19.30
2017-11-30T06:18:33.331Z,19.27
2017-11-30T06:19:33.336Z,19.34
2017-11-30T06:20:33.628Z,19.37
2017-11-30T06:21:33.333Z,19.37
2017-11-30T06:22:33.333Z,19.24
2017-11-30T06:23:33.331Z,19.30
2017-11-30T06:24:33.333Z,19.37
2017-11-30T06:25:33.334Z,19.34
2017-11-30T06:26:33.344Z,19.30
2017-11-30T06:27:33.604Z,19.37
2017-11-30T06:28:33.333Z,19.36
2017-11-30T06:29:33.342Z,19.36
2017-11-30T06:30:33.335Z,19.26
2017-11-30T06:31:33.336Z,19.36
2017-11-30T06:32:33.337Z,19.41
2017-11-30T06:33:33.336Z,19.31
2017-11-30T06:35:33.406Z,19.41
2017-11-30T06:36:33.412Z,19.29
2017-11-30T06:37:33.381Z,19.39
2017-11-30T06:38:33.388Z,19.37
2017-11-30T06:39:33.382Z,19.29
2017-11-30T06:40:33.390Z,19.31
2017-11-30T06:41:54.675Z,19.33
2017-11-30T06:42:33.405Z,19.37
2017-11-30T06:43:33.402Z,19.34
2017-11-30T06:44:33.394Z,19.34
2017-11-30T06:45:33.385Z,19.29
2017-11-30T06:46:33.392Z,19.37
2017-11-30T06:47:54.393Z,19.34
2017-11-30T06:48:33.661Z,19.29
2017-11-30T06:49:33.383Z,19.39
2017-11-30T06:50:33.380Z,19.40
2017-11-30T06:51:33.384Z,19.36
2017-11-30T06:52:33.381Z,19.44
2017-11-30T06:53:54.392Z,19.44
2017-11-30T06:54:33.690Z,19.36
2017-11-30T06:55:33.384Z,19.39
2017-11-30T06:56:33.385Z,19.45
2017-11-30T06:57:33.383Z,19.36
2017-11-30T06:58:33.396Z,19.44
2017-11-30T06:59:54.404Z,19.37
2017-11-30T07:00:33.657Z,19.36
2017-11-30T07:01:33.408Z,19.41
2017-11-30T07:02:33.400Z,19.40
2017-11-30T07:03:33.388Z,19.31
2017-11-30T07:04:33.386Z,19.40
2017-11-30T07:05:54.397Z,19.39
2017-11-30T07:06:33.657Z,19.36
2017-11-30T07:07:33.383Z,19.34
2017-11-30T07:08:33.398Z,19.33
2017-11-30T07:09:33.399Z,19.39
2017-11-30T07:10:33.388Z,19.39
2017-11-30T07:11:54.393Z,19.40
2017-11-30T07:12:34.929Z,19.29
2017-11-30T07:13:33.405Z,19.37
2017-11-30T07:14:33.385Z,19.39
2017-11-30T07:15:33.397Z,19.29
2017-11-30T07:16:33.388Z,19.31
2017-11-30T07:17:54.402Z,19.37
2017-11-30T07:18:33.661Z,19.27
2017-11-30T07:19:33.396Z,19.31
2017-11-30T07:20:33.410Z,19.40
2017-11-30T07:21:33.399Z,19.36
2017-11-30T07:22:33.407Z,19.27
2017-11-30T07:23:54.399Z,19.29
2017-11-30T07:24:33.682Z,19.33
2017-11-30T07:25:33.398Z,19.30
2017-11-30T07:26:33.401Z,19.27
2017-11-30T07:27:33.393Z,19.37
2017-11-30T07:28:33.408Z,19.31
2017-11-30T07:29:54.404Z,19.27
2017-11-30T07:30:33.670Z,19.22
2017-11-30T07:31:33.413Z,19.27
2017-11-30T07:32:33.413Z,19.26
2017-11-30T07:33:33.394Z,19.29
2017-11-30T07:34:33.390Z,19.26
2017-11-30T07:35:54.411Z,19.26
2017-11-30T07:36:33.678Z,19.22
2017-11-30T07:37:34.058Z,19.21
2017-11-30T07:38:33.409Z,19.29
2017-11-30T07:39:33.393Z,19.26
2017-11-30T07:40:33.395Z,19.24
2017-11-30T07:41:54.400Z,19.16
2017-11-30T07:42:33.670Z,19.14
2017-11-30T07:43:33.399Z,19.26
2017-11-30T07:44:33.399Z,19.16
2017-11-30T07:45:33.397Z,19.16
2017-11-30T07:46:33.408Z,19.27
2017-11-30T07:47:54.400Z,19.16
2017-11-30T07:48:33.672Z,19.16
2017-11-30T07:49:33.397Z,19.18
2017-11-30T07:50:33.401Z,19.16
2017-11-30T07:51:33.398Z,19.16
2017-11-30T07:52:33.398Z,19.15
2017-11-30T07:53:54.412Z,19.22
2017-11-30T07:54:33.677Z,19.14
2017-11-30T07:55:33.438Z,19.22
2017-11-30T07:56:33.400Z,19.14
2017-11-30T07:57:33.402Z,19.15
2017-11-30T07:58:33.418Z,19.16
2017-11-30T07:59:54.422Z,19.12
2017-11-30T08:00:33.675Z,19.16
2017-11-30T08:01:33.410Z,19.16
2017-11-30T08:02:33.399Z,19.18
2017-11-30T08:03:33.408Z,19.22
2017-11-30T08:04:33.411Z,19.15
2017-11-30T08:05:54.428Z,19.16
2017-11-30T08:06:33.700Z,19.14
2017-11-30T08:07:33.435Z,19.24
2017-11-30T08:08:33.405Z,19.14
2017-11-30T08:09:33.402Z,19.26
2017-11-30T08:10:33.402Z,19.24
2017-11-30T08:11:54.409Z,19.19
2017-11-30T08:12:34.518Z,19.24
2017-11-30T08:13:33.433Z,19.21
2017-11-30T08:14:33.411Z,19.19
2017-11-30T08:15:33.401Z,19.30
2017-11-30T08:16:33.418Z,19.27
2017-11-30T08:17:54.950Z,19.29
2017-11-30T08:18:33.682Z,19.26
2017-11-30T08:19:33.409Z,19.26
2017-11-30T08:20:33.412Z,19.22
2017-11-30T08:21:33.415Z,19.27
2017-11-30T08:22:33.405Z,19.27
2017-11-30T08:23:54.413Z,19.24
2017-11-30T08:24:33.682Z,19.29
2017-11-30T08:25:33.417Z,19.19
2017-11-30T08:26:33.945Z,19.27
2017-11-30T08:27:33.401Z,19.26
2017-11-30T08:28:33.401Z,19.27
2017-11-30T08:29:54.421Z,19.27
2017-11-30T08:31:47.743Z,19.26
